Map

Track Data

SID SEASON NUMBER BASIN SUBBASIN NAME ISO_TIME NATURE LAT LON WMO_WIND WMO_PRES WMO_AGENCY TRACK_TYPE DIST2LAND LANDFALL IFLAG USA_AGENCY USA_ATCF_ID USA_LAT USA_LON USA_RECORD USA_STATUS USA_WIND USA_PRES USA_SSHS USA_R34_NE USA_R34_SE USA_R34_SW USA_R34_NW USA_R50_NE USA_R50_SE USA_R50_SW USA_R50_NW USA_R64_NE USA_R64_SE USA_R64_SW USA_R64_NW USA_POCI USA_ROCI USA_RMW USA_EYE TOKYO_LAT TOKYO_LON TOKYO_GRADE TOKYO_WIND TOKYO_PRES TOKYO_R50_DIR TOKYO_R50_LONG TOKYO_R50_SHORT TOKYO_R30_DIR TOKYO_R30_LONG TOKYO_R30_SHORT TOKYO_LAND CMA_LAT CMA_LON CMA_CAT CMA_WIND CMA_PRES HKO_LAT HKO_LON HKO_CAT HKO_WIND HKO_PRES NEWDELHI_LAT NEWDELHI_LON NEWDELHI_GRADE NEWDELHI_WIND NEWDELHI_PRES NEWDELHI_CI NEWDELHI_DP NEWDELHI_POCI REUNION_LAT REUNION_LON REUNION_TYPE REUNION_WIND REUNION_PRES REUNION_TNUM REUNION_CI REUNION_RMW REUNION_R34_NE REUNION_R34_SE REUNION_R34_SW REUNION_R34_NW REUNION_R50_NE REUNION_R50_SE REUNION_R50_SW REUNION_R50_NW REUNION_R64_NE REUNION_R64_SE REUNION_R64_SW REUNION_R64_NW BOM_LAT BOM_LON BOM_TYPE BOM_WIND BOM_PRES BOM_TNUM BOM_CI BOM_RMW BOM_R34_NE BOM_R34_SE BOM_R34_SW BOM_R34_NW BOM_R50_NE BOM_R50_SE BOM_R50_SW BOM_R50_NW BOM_R64_NE BOM_R64_SE BOM_R64_SW BOM_R64_NW BOM_ROCI BOM_POCI BOM_EYE BOM_POS_METHOD BOM_PRES_METHOD NADI_LAT NADI_LON NADI_CAT NADI_WIND NADI_PRES WELLINGTON_LAT WELLINGTON_LON WELLINGTON_WIND WELLINGTON_PRES DS824_LAT DS824_LON DS824_STAGE DS824_WIND DS824_PRES TD9636_LAT TD9636_LON TD9636_STAGE TD9636_WIND TD9636_PRES TD9635_LAT TD9635_LON TD9635_WIND TD9635_PRES TD9635_ROCI NEUMANN_LAT NEUMANN_LON NEUMANN_CLASS NEUMANN_WIND NEUMANN_PRES MLC_LAT MLC_LON MLC_CLASS MLC_WIND MLC_PRES USA_GUST BOM_GUST BOM_GUST_PER REUNION_GUST REUNION_GUST_PER USA_SEAHGT USA_SEARAD_NE USA_SEARAD_SE USA_SEARAD_SW USA_SEARAD_NW STORM_SPEED STORM_DIR
1903039S12057 1903 12 SI MM NOT_NAMED 1903-02-08 06:00:00 NR -11.5000 56.9000 main 779 755 __________O___ -1 -11.5000 56.9000 7 5 236
1903039S12057 1903 12 SI MM NOT_NAMED 1903-02-08 09:00:00 NR -11.6500 56.6689 main 752 717 __________P___ -1 -11.6500 56.6689 7 6 237
1903039S12057 1903 12 SI MM NOT_NAMED 1903-02-08 12:00:00 NR -11.8000 56.4301 main 717 693 __________P___ -1 -11.8000 56.4301 7 6 238
1903039S12057 1903 12 SI MM NOT_NAMED 1903-02-08 15:00:00 NR -11.9500 56.1763 main 693 656 __________P___ -1 -11.9500 56.1763 7 6 240
1903039S12057 1903 12 SI MM NOT_NAMED 1903-02-08 18:00:00 NR -12.1000 55.9000 main 656 622 __________O___ -1 -12.1000 55.9000 7 6 242
1903039S12057 1903 12 SI MM NOT_NAMED 1903-02-08 21:00:00 NR -12.2501 55.5981 main 619 584 __________P___ -1 -12.2501 55.5981 7 7 243
1903039S12057 1903 12 SI MM NOT_NAMED 1903-02-09 00:00:00 NR -12.4001 55.2850 main 584 550 __________P___ -1 -12.4001 55.2850 7 7 244
1903039S12057 1903 12 SI MM NOT_NAMED 1903-02-09 03:00:00 NR -12.5501 54.9794 main 547 513 __________P___ -1 -12.5501 54.9794 7 6 242
1903039S12057 1903 12 SI MM NOT_NAMED 1903-02-09 06:00:00 NR -12.7000 54.7000 main 513 489 __________O___ -1 -12.7000 54.7000 7 6 239
1903039S12057 1903 12 SI MM NOT_NAMED 1903-02-09 09:00:00 NR -12.8498 54.4711 main 489 463 __________P___ -1 -12.8498 54.4711 7 5 234
1903039S12057 1903 12 SI MM NOT_NAMED 1903-02-09 12:00:00 NR -12.9998 54.2698 main 463 439 __________P___ -1 -12.9998 54.2698 7 5 232
1903039S12057 1903 12 SI MM NOT_NAMED 1903-02-09 15:00:00 NR -13.1499 54.0836 main 439 414 __________P___ -1 -13.1499 54.0836 7 5 230
1903039S12057 1903 12 SI MM NOT_NAMED 1903-02-09 18:00:00 NR -13.3000 53.9000 main 414 391 __________O___ -1 -13.3000 53.9000 7 5 232
1903039S12057 1903 12 SI MM NOT_NAMED 1903-02-09 21:00:00 NR -13.4500 53.6918 main 391 368 __________P___ -1 -13.4500 53.6918 7 5 233
1903039S12057 1903 12 SI MM NOT_NAMED 1903-02-10 00:00:00 NR -13.6000 53.4850 main 368 345 __________P___ -1 -13.6000 53.4850 7 5 233
1903039S12057 1903 12 SI MM NOT_NAMED 1903-02-10 03:00:00 NR -13.7500 53.2856 main 345 315 __________P___ -1 -13.7500 53.2856 7 5 231
1903039S12057 1903 12 SI MM NOT_NAMED 1903-02-10 06:00:00 NR -13.9000 53.1000 main 315 291 __________O___ -1 -13.9000 53.1000 7 5 230
1903039S12057 1903 12 SI MM NOT_NAMED 1903-02-10 09:00:00 NR -14.0418 52.9234 main 291 271 __________P___ -1 -14.0418 52.9234 7 4 229
1903039S12057 1903 12 SI MM NOT_NAMED 1903-02-10 12:00:00 NR -14.1850 52.7624 main 271 247 __________P___ -1 -14.1850 52.7624 7 4 225
1903039S12057 1903 12 SI MM NOT_NAMED 1903-02-10 15:00:00 NR -14.3356 52.6203 main 247 228 __________P___ -1 -14.3356 52.6203 7 4 219
1903039S12057 1903 12 SI MM NOT_NAMED 1903-02-10 18:00:00 NR -14.5000 52.5000 main 228 211 __________O___ -1 -14.5000 52.5000 7 4 216
1903039S12057 1903 12 SI MM NOT_NAMED 1903-02-10 21:00:00 NR -14.6693 52.3671 main 211 198 __________P___ -1 -14.6693 52.3671 7 4 213
1903039S12057 1903 12 SI MM NOT_NAMED 1903-02-11 00:00:00 NR -14.8549 52.2604 main 196 182 __________P___ -1 -14.8549 52.2604 7 4 202
1903039S12057 1903 12 SI MM NOT_NAMED 1903-02-11 03:00:00 NR -15.0631 52.1984 main 182 182 __________P___ -1 -15.0631 52.1984 7 5 188
1903039S12057 1903 12 SI MM NOT_NAMED 1903-02-11 06:00:00 NR -15.3000 52.2000 main 182 182 __________O___ -1 -15.3000 52.2000 7 5 175
1903039S12057 1903 12 SI MM NOT_NAMED 1903-02-11 09:00:00 NR -15.5915 52.2607 main 194 194 __________P___ -1 -15.5915 52.2607 7 6 163
1903039S12057 1903 12 SI MM NOT_NAMED 1903-02-11 12:00:00 NR -15.9073 52.3872 main 211 211 __________P___ -1 -15.9073 52.3872 7 7 155
1903039S12057 1903 12 SI MM NOT_NAMED 1903-02-11 15:00:00 NR -16.2195 52.5702 main 241 241 __________P___ -1 -16.2195 52.5702 7 7 146
1903039S12057 1903 12 SI MM NOT_NAMED 1903-02-11 18:00:00 NR -16.5000 52.8000 main 275 275 __________O___ -1 -16.5000 52.8000 7 7 137
1903039S12057 1903 12 SI MM NOT_NAMED 1903-02-11 21:00:00 NR -16.6986 53.0370 main 303 303 __________P___ -1 -16.6986 53.0370 7 6 126
1903039S12057 1903 12 SI MM NOT_NAMED 1903-02-12 00:00:00 NR -16.8648 53.3182 main 342 342 __________P___ -1 -16.8648 53.3182 7 7 119
1903039S12057 1903 12 SI MM NOT_NAMED 1903-02-12 03:00:00 NR -17.0235 53.6403 main 375 375 __________P___ -1 -17.0235 53.6403 7 7 117
1903039S12057 1903 12 SI MM NOT_NAMED 1903-02-12 06:00:00 NR -17.2000 54.0000 main 423 413 __________O___ -1 -17.2000 54.0000 7 8 120
1903039S12057 1903 12 SI MM NOT_NAMED 1903-02-12 09:00:00 NR -17.4489 54.3967 main 413 372 __________P___ -1 -17.4489 54.3967 7 9 123
1903039S12057 1903 12 SI MM NOT_NAMED 1903-02-12 12:00:00 NR -17.7153 54.8268 main 372 335 __________P___ -1 -17.7153 54.8268 7 10 122
1903039S12057 1903 12 SI MM NOT_NAMED 1903-02-12 15:00:00 NR -17.9739 55.2686 main 329 284 __________P___ -1 -17.9739 55.2686 7 10 120
1903039S12057 1903 12 SI MM NOT_NAMED 1903-02-12 18:00:00 NR -18.2000 55.7000 main 284 240 __________O___ -1 -18.2000 55.7000 7 9 116
1903039S12057 1903 12 SI MM NOT_NAMED 1903-02-12 21:00:00 NR -18.3689 56.1101 main 240 207 __________P___ -1 -18.3689 56.1101 7 8 112
1903039S12057 1903 12 SI MM NOT_NAMED 1903-02-13 00:00:00 NR -18.5024 56.5029 main 207 179 __________P___ -1 -18.5024 56.5029 7 8 108
1903039S12057 1903 12 SI MM NOT_NAMED 1903-02-13 03:00:00 NR -18.6096 56.8693 main 179 159 __________P___ -1 -18.6096 56.8693 7 7 107
1903039S12057 1903 12 SI MM NOT_NAMED 1903-02-13 06:00:00 NR -18.7000 57.2000 main 159 145 __________O___ -1 -18.7000 57.2000 7 6 107
1903039S12057 1903 12 SI MM NOT_NAMED 1903-02-13 09:00:00 NR -18.7849 57.4822 main 145 134 __________P___ -1 -18.7849 57.4822 7 5 107
1903039S12057 1903 12 SI MM NOT_NAMED 1903-02-13 12:00:00 NR -18.8570 57.7304 main 134 134 __________P___ -1 -18.8570 57.7304 7 5 107
1903039S12057 1903 12 SI MM NOT_NAMED 1903-02-13 15:00:00 NR -18.9256 57.9634 main 137 129 __________P___ -1 -18.9256 57.9634 7 5 108
1903039S12057 1903 12 SI MM NOT_NAMED 1903-02-13 18:00:00 NR -19.0000 58.2000 main 133 133 __________O___ -1 -19.0000 58.2000 7 5 109
1903039S12057 1903 12 SI MM NOT_NAMED 1903-02-13 21:00:00 NR -19.0872 58.4550 main 139 137 __________P___ -1 -19.0872 58.4550 7 5 110
1903039S12057 1903 12 SI MM NOT_NAMED 1903-02-14 00:00:00 NR -19.1856 58.7270 main 145 145 __________P___ -1 -19.1856 58.7270 7 6 111
1903039S12057 1903 12 SI MM NOT_NAMED 1903-02-14 03:00:00 NR -19.2911 59.0105 main 162 162 __________P___ -1 -19.2911 59.0105 7 6 112
1903039S12057 1903 12 SI MM NOT_NAMED 1903-02-14 06:00:00 NR -19.4000 59.3000 main 184 __________O___ -1 -19.4000 59.3000 7 6 112

About IBTrACS Database

This database is a web-friendly format of International Best Track Archive for Climate Stewardship (IBTrACS), a global best track data archive curated by NOAA dating back to 1842.

Updated: 2021-10-21